sensor_id;sensor_type;location;lat;lon;timestamp;P1;durP1;ratioP1;P2;durP2;ratioP2
26335;SDS011;14047;50.936;4.654;2023-07-09T00:02:24;12.48;;;6.80;;
26335;SDS011;14047;50.936;4.654;2023-07-09T00:04:51;13.35;;;7.40;;
26335;SDS011;14047;50.936;4.654;2023-07-09T00:09:47;14.52;;;7.32;;
26335;SDS011;14047;50.936;4.654;2023-07-09T00:12:13;11.43;;;6.85;;
26335;SDS011;14047;50.936;4.654;2023-07-09T00:14:40;7.60;;;5.75;;
26335;SDS011;14047;50.936;4.654;2023-07-09T00:17:08;12.40;;;7.05;;
26335;SDS011;14047;50.936;4.654;2023-07-09T00:19:48;10.32;;;6.82;;
26335;SDS011;14047;50.936;4.654;2023-07-09T00:22:15;11.50;;;6.88;;
26335;SDS011;14047;50.936;4.654;2023-07-09T00:24:43;10.45;;;7.13;;
26335;SDS011;14047;50.936;4.654;2023-07-09T00:27:13;9.52;;;7.00;;
26335;SDS011;14047;50.936;4.654;2023-07-09T00:29:41;12.65;;;6.97;;
26335;SDS011;14047;50.936;4.654;2023-07-09T00:32:14;14.80;;;7.03;;
26335;SDS011;14047;50.936;4.654;2023-07-09T00:34:42;13.20;;;7.43;;
26335;SDS011;14047;50.936;4.654;2023-07-09T00:37:17;10.63;;;6.90;;
26335;SDS011;14047;50.936;4.654;2023-07-09T00:39:46;15.95;;;8.10;;
26335;SDS011;14047;50.936;4.654;2023-07-09T00:42:13;12.55;;;8.10;;
26335;SDS011;14047;50.936;4.654;2023-07-09T00:44:53;15.15;;;8.13;;
26335;SDS011;14047;50.936;4.654;2023-07-09T00:53:04;12.50;;;7.35;;
26335;SDS011;14047;50.936;4.654;2023-07-09T00:55:36;14.77;;;7.93;;
26335;SDS011;14047;50.936;4.654;2023-07-09T00:58:06;11.63;;;7.97;;
26335;SDS011;14047;50.936;4.654;2023-07-09T01:00:41;12.73;;;7.30;;
26335;SDS011;14047;50.936;4.654;2023-07-09T01:03:21;12.13;;;7.78;;
26335;SDS011;14047;50.936;4.654;2023-07-09T01:06:00;15.80;;;8.32;;
26335;SDS011;14047;50.936;4.654;2023-07-09T01:08:28;12.00;;;7.80;;
26335;SDS011;14047;50.936;4.654;2023-07-09T01:10:58;19.65;;;8.70;;
26335;SDS011;14047;50.936;4.654;2023-07-09T01:13:24;13.32;;;8.55;;
26335;SDS011;14047;50.936;4.654;2023-07-09T01:15:57;13.88;;;7.72;;
26335;SDS011;14047;50.936;4.654;2023-07-09T01:18:24;13.30;;;8.05;;
26335;SDS011;14047;50.936;4.654;2023-07-09T01:20:51;12.32;;;8.05;;
26335;SDS011;14047;50.936;4.654;2023-07-09T01:23:21;16.23;;;8.35;;
26335;SDS011;14047;50.936;4.654;2023-07-09T01:25:50;20.60;;;8.80;;
26335;SDS011;14047;50.936;4.654;2023-07-09T01:28:19;14.55;;;8.15;;
26335;SDS011;14047;50.936;4.654;2023-07-09T01:30:46;14.63;;;7.82;;
26335;SDS011;14047;50.936;4.654;2023-07-09T01:33:19;14.38;;;8.60;;
26335;SDS011;14047;50.936;4.654;2023-07-09T01:35:48;14.38;;;7.45;;
26335;SDS011;14047;50.936;4.654;2023-07-09T01:38:14;12.85;;;8.70;;
26335;SDS011;14047;50.936;4.654;2023-07-09T01:40:40;11.65;;;8.30;;
26335;SDS011;14047;50.936;4.654;2023-07-09T01:43:07;13.98;;;8.70;;
26335;SDS011;14047;50.936;4.654;2023-07-09T01:45:34;15.93;;;8.30;;
26335;SDS011;14047;50.936;4.654;2023-07-09T01:48:01;13.70;;;8.90;;
26335;SDS011;14047;50.936;4.654;2023-07-09T01:50:28;11.07;;;7.93;;
26335;SDS011;14047;50.936;4.654;2023-07-09T01:52:55;9.98;;;8.02;;
26335;SDS011;14047;50.936;4.654;2023-07-09T01:55:22;15.82;;;8.52;;
26335;SDS011;14047;50.936;4.654;2023-07-09T01:57:48;14.18;;;9.50;;
26335;SDS011;14047;50.936;4.654;2023-07-09T02:00:16;16.63;;;8.85;;
26335;SDS011;14047;50.936;4.654;2023-07-09T02:02:44;10.95;;;8.30;;
26335;SDS011;14047;50.936;4.654;2023-07-09T02:05:12;11.52;;;8.60;;
26335;SDS011;14047;50.936;4.654;2023-07-09T02:07:42;9.82;;;8.50;;
26335;SDS011;14047;50.936;4.654;2023-07-09T02:10:08;15.73;;;8.88;;
26335;SDS011;14047;50.936;4.654;2023-07-09T02:12:35;16.58;;;9.48;;
26335;SDS011;14047;50.936;4.654;2023-07-09T02:15:01;13.00;;;8.95;;
26335;SDS011;14047;50.936;4.654;2023-07-09T02:17:29;14.90;;;8.77;;
26335;SDS011;14047;50.936;4.654;2023-07-09T02:19:56;11.88;;;7.95;;
26335;SDS011;14047;50.936;4.654;2023-07-09T02:22:21;13.40;;;8.30;;
26335;SDS011;14047;50.936;4.654;2023-07-09T02:24:47;12.18;;;8.32;;
26335;SDS011;14047;50.936;4.654;2023-07-09T02:27:15;19.88;;;9.20;;
26335;SDS011;14047;50.936;4.654;2023-07-09T02:29:43;14.82;;;8.68;;
26335;SDS011;14047;50.936;4.654;2023-07-09T02:32:09;13.45;;;9.02;;
26335;SDS011;14047;50.936;4.654;2023-07-09T02:34:42;13.07;;;8.43;;
26335;SDS011;14047;50.936;4.654;2023-07-09T02:37:08;13.20;;;8.75;;
26335;SDS011;14047;50.936;4.654;2023-07-09T02:39:33;12.23;;;8.00;;
26335;SDS011;14047;50.936;4.654;2023-07-09T02:42:00;15.38;;;9.50;;
26335;SDS011;14047;50.936;4.654;2023-07-09T02:44:26;19.10;;;9.10;;
26335;SDS011;14047;50.936;4.654;2023-07-09T02:46:52;19.27;;;8.52;;
26335;SDS011;14047;50.936;4.654;2023-07-09T02:49:18;13.77;;;7.85;;
26335;SDS011;14047;50.936;4.654;2023-07-09T02:51:44;14.13;;;8.20;;
26335;SDS011;14047;50.936;4.654;2023-07-09T02:54:10;16.88;;;8.75;;
26335;SDS011;14047;50.936;4.654;2023-07-09T02:56:36;15.57;;;8.02;;
26335;SDS011;14047;50.936;4.654;2023-07-09T02:59:02;16.88;;;8.25;;
26335;SDS011;14047;50.936;4.654;2023-07-09T03:01:28;16.77;;;8.85;;
26335;SDS011;14047;50.936;4.654;2023-07-09T03:03:55;12.95;;;8.35;;
26335;SDS011;14047;50.936;4.654;2023-07-09T03:06:21;11.68;;;8.05;;
26335;SDS011;14047;50.936;4.654;2023-07-09T03:08:49;19.42;;;8.65;;
26335;SDS011;14047;50.936;4.654;2023-07-09T03:11:15;18.45;;;8.25;;
26335;SDS011;14047;50.936;4.654;2023-07-09T03:13:42;17.23;;;7.78;;
26335;SDS011;14047;50.936;4.654;2023-07-09T03:16:09;23.42;;;7.90;;
26335;SDS011;14047;50.936;4.654;2023-07-09T03:18:35;11.75;;;7.70;;
26335;SDS011;14047;50.936;4.654;2023-07-09T03:21:01;12.07;;;7.32;;
26335;SDS011;14047;50.936;4.654;2023-07-09T03:23:27;12.05;;;6.85;;
26335;SDS011;14047;50.936;4.654;2023-07-09T03:25:54;10.70;;;6.95;;
26335;SDS011;14047;50.936;4.654;2023-07-09T03:28:20;16.83;;;6.93;;
26335;SDS011;14047;50.936;4.654;2023-07-09T03:30:47;10.20;;;6.50;;
26335;SDS011;14047;50.936;4.654;2023-07-09T03:33:14;14.80;;;6.30;;
26335;SDS011;14047;50.936;4.654;2023-07-09T03:35:42;18.33;;;6.32;;
26335;SDS011;14047;50.936;4.654;2023-07-09T03:38:09;11.43;;;6.13;;
26335;SDS011;14047;50.936;4.654;2023-07-09T03:40:35;10.68;;;5.85;;
26335;SDS011;14047;50.936;4.654;2023-07-09T03:43:06;13.45;;;6.03;;
26335;SDS011;14047;50.936;4.654;2023-07-09T03:45:34;12.00;;;6.30;;
26335;SDS011;14047;50.936;4.654;2023-07-09T03:48:01;9.43;;;5.15;;
26335;SDS011;14047;50.936;4.654;2023-07-09T03:50:27;9.85;;;5.75;;
26335;SDS011;14047;50.936;4.654;2023-07-09T03:52:53;10.00;;;6.22;;
26335;SDS011;14047;50.936;4.654;2023-07-09T03:55:19;14.45;;;6.20;;
26335;SDS011;14047;50.936;4.654;2023-07-09T03:57:46;15.35;;;5.97;;
26335;SDS011;14047;50.936;4.654;2023-07-09T04:00:12;12.00;;;5.22;;
26335;SDS011;14047;50.936;4.654;2023-07-09T04:02:42;12.55;;;5.85;;
26335;SDS011;14047;50.936;4.654;2023-07-09T04:05:10;12.05;;;6.25;;
26335;SDS011;14047;50.936;4.654;2023-07-09T04:07:37;13.43;;;5.72;;
26335;SDS011;14047;50.936;4.654;2023-07-09T04:10:03;11.75;;;5.35;;
26335;SDS011;14047;50.936;4.654;2023-07-09T04:12:30;9.85;;;5.35;;
26335;SDS011;14047;50.936;4.654;2023-07-09T04:14:56;12.68;;;5.88;;
26335;SDS011;14047;50.936;4.654;2023-07-09T04:17:22;13.15;;;5.45;;
26335;SDS011;14047;50.936;4.654;2023-07-09T04:19:52;10.00;;;5.32;;
26335;SDS011;14047;50.936;4.654;2023-07-09T04:22:18;11.63;;;5.57;;
26335;SDS011;14047;50.936;4.654;2023-07-09T04:24:44;12.23;;;5.38;;
26335;SDS011;14047;50.936;4.654;2023-07-09T04:27:11;10.80;;;5.38;;
26335;SDS011;14047;50.936;4.654;2023-07-09T04:29:39;9.40;;;5.32;;
26335;SDS011;14047;50.936;4.654;2023-07-09T04:32:06;9.65;;;5.38;;
26335;SDS011;14047;50.936;4.654;2023-07-09T04:34:36;8.60;;;5.05;;
26335;SDS011;14047;50.936;4.654;2023-07-09T04:37:05;11.55;;;5.10;;
26335;SDS011;14047;50.936;4.654;2023-07-09T04:39:32;11.40;;;4.93;;
26335;SDS011;14047;50.936;4.654;2023-07-09T04:41:58;11.02;;;5.18;;
26335;SDS011;14047;50.936;4.654;2023-07-09T04:44:24;14.52;;;5.57;;
26335;SDS011;14047;50.936;4.654;2023-07-09T04:46:51;12.30;;;5.45;;
26335;SDS011;14047;50.936;4.654;2023-07-09T04:49:17;12.23;;;5.07;;
26335;SDS011;14047;50.936;4.654;2023-07-09T04:51:43;11.02;;;5.80;;
26335;SDS011;14047;50.936;4.654;2023-07-09T04:54:09;12.65;;;6.38;;
26335;SDS011;14047;50.936;4.654;2023-07-09T04:56:35;7.82;;;5.68;;
26335;SDS011;14047;50.936;4.654;2023-07-09T04:59:03;12.77;;;5.53;;
26335;SDS011;14047;50.936;4.654;2023-07-09T05:01:29;8.48;;;5.18;;
26335;SDS011;14047;50.936;4.654;2023-07-09T05:03:54;9.57;;;5.30;;
26335;SDS011;14047;50.936;4.654;2023-07-09T05:06:21;16.92;;;5.47;;
26335;SDS011;14047;50.936;4.654;2023-07-09T05:08:47;10.68;;;5.60;;
26335;SDS011;14047;50.936;4.654;2023-07-09T05:11:14;9.35;;;5.88;;
26335;SDS011;14047;50.936;4.654;2023-07-09T05:13:40;12.80;;;5.60;;
26335;SDS011;14047;50.936;4.654;2023-07-09T05:16:07;10.77;;;5.22;;
26335;SDS011;14047;50.936;4.654;2023-07-09T05:18:33;9.98;;;5.35;;
26335;SDS011;14047;50.936;4.654;2023-07-09T05:20:58;15.43;;;5.75;;
26335;SDS011;14047;50.936;4.654;2023-07-09T05:23:26;9.85;;;5.38;;
26335;SDS011;14047;50.936;4.654;2023-07-09T05:25:56;9.52;;;5.28;;
26335;SDS011;14047;50.936;4.654;2023-07-09T05:28:27;9.88;;;5.43;;
26335;SDS011;14047;50.936;4.654;2023-07-09T05:30:53;9.95;;;5.30;;
26335;SDS011;14047;50.936;4.654;2023-07-09T05:33:20;9.45;;;5.55;;
26335;SDS011;14047;50.936;4.654;2023-07-09T05:35:46;11.27;;;5.55;;
26335;SDS011;14047;50.936;4.654;2023-07-09T05:38:13;11.05;;;5.47;;
26335;SDS011;14047;50.936;4.654;2023-07-09T05:40:40;9.70;;;5.00;;
26335;SDS011;14047;50.936;4.654;2023-07-09T05:43:07;8.80;;;5.10;;
26335;SDS011;14047;50.936;4.654;2023-07-09T05:45:33;9.70;;;5.07;;
26335;SDS011;14047;50.936;4.654;2023-07-09T05:48:00;9.82;;;5.63;;
26335;SDS011;14047;50.936;4.654;2023-07-09T05:50:27;10.63;;;5.78;;
26335;SDS011;14047;50.936;4.654;2023-07-09T05:52:53;12.80;;;5.47;;
26335;SDS011;14047;50.936;4.654;2023-07-09T05:55:20;13.15;;;5.18;;
26335;SDS011;14047;50.936;4.654;2023-07-09T05:57:46;10.23;;;4.82;;
26335;SDS011;14047;50.936;4.654;2023-07-09T06:00:12;8.32;;;4.68;;
26335;SDS011;14047;50.936;4.654;2023-07-09T06:02:42;8.80;;;5.50;;
26335;SDS011;14047;50.936;4.654;2023-07-09T06:05:08;9.27;;;5.15;;
26335;SDS011;14047;50.936;4.654;2023-07-09T06:07:38;13.73;;;5.15;;
26335;SDS011;14047;50.936;4.654;2023-07-09T06:10:05;9.82;;;5.00;;
26335;SDS011;14047;50.936;4.654;2023-07-09T06:12:33;8.95;;;5.10;;
26335;SDS011;14047;50.936;4.654;2023-07-09T06:14:59;5.75;;;4.20;;
26335;SDS011;14047;50.936;4.654;2023-07-09T06:17:25;12.63;;;4.75;;
26335;SDS011;14047;50.936;4.654;2023-07-09T06:19:51;8.18;;;4.53;;
26335;SDS011;14047;50.936;4.654;2023-07-09T06:22:17;8.80;;;4.80;;
26335;SDS011;14047;50.936;4.654;2023-07-09T06:24:44;14.50;;;4.72;;
26335;SDS011;14047;50.936;4.654;2023-07-09T06:27:11;10.25;;;5.13;;
26335;SDS011;14047;50.936;4.654;2023-07-09T06:29:37;7.80;;;4.82;;
26335;SDS011;14047;50.936;4.654;2023-07-09T06:32:03;7.75;;;4.50;;
26335;SDS011;14047;50.936;4.654;2023-07-09T06:34:30;9.13;;;4.85;;
26335;SDS011;14047;50.936;4.654;2023-07-09T06:36:56;7.25;;;4.72;;
26335;SDS011;14047;50.936;4.654;2023-07-09T06:39:22;11.02;;;5.55;;
26335;SDS011;14047;50.936;4.654;2023-07-09T06:41:49;9.20;;;5.10;;
26335;SDS011;14047;50.936;4.654;2023-07-09T06:44:35;7.25;;;4.50;;
26335;SDS011;14047;50.936;4.654;2023-07-09T06:47:01;6.97;;;4.88;;
26335;SDS011;14047;50.936;4.654;2023-07-09T06:49:27;6.90;;;4.50;;
26335;SDS011;14047;50.936;4.654;2023-07-09T06:51:53;12.52;;;4.70;;
26335;SDS011;14047;50.936;4.654;2023-07-09T06:54:19;6.25;;;4.20;;
26335;SDS011;14047;50.936;4.654;2023-07-09T06:56:45;12.15;;;4.68;;
26335;SDS011;14047;50.936;4.654;2023-07-09T06:59:12;10.15;;;4.90;;
26335;SDS011;14047;50.936;4.654;2023-07-09T07:01:38;9.35;;;4.78;;
26335;SDS011;14047;50.936;4.654;2023-07-09T07:04:04;10.98;;;4.18;;
26335;SDS011;14047;50.936;4.654;2023-07-09T07:06:30;10.30;;;4.75;;
26335;SDS011;14047;50.936;4.654;2023-07-09T07:08:56;10.05;;;4.25;;
26335;SDS011;14047;50.936;4.654;2023-07-09T07:11:22;9.10;;;4.25;;
26335;SDS011;14047;50.936;4.654;2023-07-09T07:13:48;8.80;;;4.10;;
26335;SDS011;14047;50.936;4.654;2023-07-09T07:16:16;13.25;;;5.07;;
26335;SDS011;14047;50.936;4.654;2023-07-09T07:18:42;10.93;;;5.05;;
26335;SDS011;14047;50.936;4.654;2023-07-09T07:21:08;12.60;;;5.53;;
26335;SDS011;14047;50.936;4.654;2023-07-09T07:23:34;9.85;;;5.38;;
26335;SDS011;14047;50.936;4.654;2023-07-09T07:26:02;11.48;;;5.50;;
26335;SDS011;14047;50.936;4.654;2023-07-09T07:28:29;10.48;;;5.70;;
26335;SDS011;14047;50.936;4.654;2023-07-09T07:30:59;9.95;;;5.72;;
26335;SDS011;14047;50.936;4.654;2023-07-09T07:33:26;12.55;;;5.90;;
26335;SDS011;14047;50.936;4.654;2023-07-09T07:35:52;13.05;;;5.15;;
26335;SDS011;14047;50.936;4.654;2023-07-09T07:38:18;11.35;;;5.30;;
26335;SDS011;14047;50.936;4.654;2023-07-09T07:40:44;11.20;;;5.18;;
26335;SDS011;14047;50.936;4.654;2023-07-09T07:43:10;8.82;;;4.90;;
26335;SDS011;14047;50.936;4.654;2023-07-09T07:45:40;7.90;;;4.65;;
26335;SDS011;14047;50.936;4.654;2023-07-09T07:48:06;6.72;;;4.75;;
26335;SDS011;14047;50.936;4.654;2023-07-09T07:50:33;8.95;;;4.53;;
26335;SDS011;14047;50.936;4.654;2023-07-09T07:52:58;12.43;;;5.32;;
26335;SDS011;14047;50.936;4.654;2023-07-09T07:55:24;8.52;;;4.55;;
26335;SDS011;14047;50.936;4.654;2023-07-09T07:57:50;7.82;;;4.50;;
26335;SDS011;14047;50.936;4.654;2023-07-09T08:00:16;9.43;;;4.40;;
26335;SDS011;14047;50.936;4.654;2023-07-09T08:02:45;12.05;;;4.47;;
26335;SDS011;14047;50.936;4.654;2023-07-09T08:05:11;10.13;;;4.80;;
26335;SDS011;14047;50.936;4.654;2023-07-09T08:07:37;8.70;;;4.15;;
26335;SDS011;14047;50.936;4.654;2023-07-09T08:10:03;9.82;;;4.63;;
26335;SDS011;14047;50.936;4.654;2023-07-09T08:12:30;10.73;;;4.22;;
26335;SDS011;14047;50.936;4.654;2023-07-09T08:14:56;14.38;;;4.57;;
26335;SDS011;14047;50.936;4.654;2023-07-09T08:17:22;10.73;;;5.30;;
26335;SDS011;14047;50.936;4.654;2023-07-09T08:19:51;8.52;;;5.43;;
26335;SDS011;14047;50.936;4.654;2023-07-09T08:22:20;10.50;;;5.72;;
26335;SDS011;14047;50.936;4.654;2023-07-09T08:24:49;14.65;;;5.22;;
26335;SDS011;14047;50.936;4.654;2023-07-09T08:27:16;9.68;;;5.70;;
26335;SDS011;14047;50.936;4.654;2023-07-09T08:29:43;13.20;;;5.80;;
26335;SDS011;14047;50.936;4.654;2023-07-09T08:32:12;12.48;;;5.82;;
26335;SDS011;14047;50.936;4.654;2023-07-09T08:34:39;12.02;;;6.05;;
26335;SDS011;14047;50.936;4.654;2023-07-09T08:37:06;9.13;;;5.53;;
26335;SDS011;14047;50.936;4.654;2023-07-09T08:39:33;12.85;;;8.30;;
26335;SDS011;14047;50.936;4.654;2023-07-09T08:42:04;21.95;;;9.18;;
26335;SDS011;14047;50.936;4.654;2023-07-09T08:50:05;18.08;;;13.02;;
26335;SDS011;14047;50.936;4.654;2023-07-09T08:52:38;25.63;;;14.00;;
26335;SDS011;14047;50.936;4.654;2023-07-09T08:55:08;27.45;;;15.88;;
26335;SDS011;14047;50.936;4.654;2023-07-09T08:57:41;21.45;;;14.23;;
26335;SDS011;14047;50.936;4.654;2023-07-09T09:00:15;19.75;;;13.00;;
26335;SDS011;14047;50.936;4.654;2023-07-09T09:02:45;22.83;;;14.73;;
26335;SDS011;14047;50.936;4.654;2023-07-09T09:05:22;20.70;;;14.13;;
26335;SDS011;14047;50.936;4.654;2023-07-09T09:08:01;21.70;;;14.32;;
26335;SDS011;14047;50.936;4.654;2023-07-09T09:10:42;21.75;;;13.77;;
26335;SDS011;14047;50.936;4.654;2023-07-09T09:13:14;21.45;;;14.05;;
26335;SDS011;14047;50.936;4.654;2023-07-09T09:15:45;21.55;;;13.18;;
26335;SDS011;14047;50.936;4.654;2023-07-09T09:18:16;24.38;;;17.20;;
26335;SDS011;14047;50.936;4.654;2023-07-09T09:20:47;27.45;;;17.85;;
26335;SDS011;14047;50.936;4.654;2023-07-09T09:23:21;30.58;;;18.50;;
26335;SDS011;14047;50.936;4.654;2023-07-09T09:25:52;27.45;;;17.35;;
26335;SDS011;14047;50.936;4.654;2023-07-09T09:28:23;27.95;;;17.90;;
26335;SDS011;14047;50.936;4.654;2023-07-09T09:30:51;26.30;;;15.75;;
26335;SDS011;14047;50.936;4.654;2023-07-09T09:33:17;24.17;;;14.25;;
26335;SDS011;14047;50.936;4.654;2023-07-09T09:35:44;27.85;;;15.82;;
26335;SDS011;14047;50.936;4.654;2023-07-09T09:38:11;28.23;;;16.77;;
26335;SDS011;14047;50.936;4.654;2023-07-09T09:40:41;28.58;;;18.73;;
26335;SDS011;14047;50.936;4.654;2023-07-09T09:43:11;26.65;;;19.85;;
26335;SDS011;14047;50.936;4.654;2023-07-09T09:45:39;28.65;;;20.77;;
26335;SDS011;14047;50.936;4.654;2023-07-09T09:48:11;28.40;;;18.17;;
26335;SDS011;14047;50.936;4.654;2023-07-09T09:50:41;35.55;;;18.63;;
26335;SDS011;14047;50.936;4.654;2023-07-09T09:53:08;34.47;;;15.85;;
26335;SDS011;14047;50.936;4.654;2023-07-09T09:55:41;22.58;;;16.17;;
26335;SDS011;14047;50.936;4.654;2023-07-09T09:58:10;24.80;;;16.98;;
26335;SDS011;14047;50.936;4.654;2023-07-09T10:00:39;24.75;;;14.50;;
26335;SDS011;14047;50.936;4.654;2023-07-09T10:03:05;23.65;;;16.05;;
26335;SDS011;14047;50.936;4.654;2023-07-09T10:05:33;21.35;;;13.23;;
26335;SDS011;14047;50.936;4.654;2023-07-09T10:08:13;29.60;;;18.75;;
26335;SDS011;14047;50.936;4.654;2023-07-09T10:10:46;28.48;;;16.88;;
26335;SDS011;14047;50.936;4.654;2023-07-09T10:13:28;29.23;;;18.65;;
26335;SDS011;14047;50.936;4.654;2023-07-09T10:16:14;31.05;;;20.30;;
26335;SDS011;14047;50.936;4.654;2023-07-09T10:18:57;27.45;;;20.73;;
26335;SDS011;14047;50.936;4.654;2023-07-09T10:21:37;32.55;;;23.00;;
26335;SDS011;14047;50.936;4.654;2023-07-09T10:24:23;31.45;;;21.08;;
26335;SDS011;14047;50.936;4.654;2023-07-09T10:27:11;31.75;;;22.30;;
26335;SDS011;14047;50.936;4.654;2023-07-09T10:40:59;27.60;;;16.30;;
26335;SDS011;14047;50.936;4.654;2023-07-09T10:46:13;28.58;;;19.20;;
26335;SDS011;14047;50.936;4.654;2023-07-09T10:48:43;25.38;;;17.98;;
26335;SDS011;14047;50.936;4.654;2023-07-09T10:51:16;28.00;;;17.67;;
26335;SDS011;14047;50.936;4.654;2023-07-09T10:53:52;23.98;;;17.48;;
26335;SDS011;14047;50.936;4.654;2023-07-09T10:56:21;25.02;;;16.77;;
26335;SDS011;14047;50.936;4.654;2023-07-09T11:01:19;20.38;;;14.82;;
26335;SDS011;14047;50.936;4.654;2023-07-09T11:03:59;17.42;;;12.73;;
26335;SDS011;14047;50.936;4.654;2023-07-09T11:06:37;16.77;;;11.70;;
26335;SDS011;14047;50.936;4.654;2023-07-09T11:09:09;17.42;;;11.05;;
26335;SDS011;14047;50.936;4.654;2023-07-09T11:11:47;14.50;;;9.40;;
26335;SDS011;14047;50.936;4.654;2023-07-09T11:14:26;13.52;;;8.07;;
26335;SDS011;14047;50.936;4.654;2023-07-09T11:17:01;14.35;;;7.15;;
26335;SDS011;14047;50.936;4.654;2023-07-09T11:19:29;11.82;;;7.07;;
26335;SDS011;14047;50.936;4.654;2023-07-09T11:22:06;9.45;;;6.28;;
26335;SDS011;14047;50.936;4.654;2023-07-09T11:27:30;11.05;;;5.93;;
26335;SDS011;14047;50.936;4.654;2023-07-09T11:29:57;11.23;;;5.30;;
26335;SDS011;14047;50.936;4.654;2023-07-09T11:32:25;8.30;;;5.28;;
26335;SDS011;14047;50.936;4.654;2023-07-09T11:34:52;14.40;;;5.22;;
26335;SDS011;14047;50.936;4.654;2023-07-09T11:37:20;8.10;;;4.50;;
26335;SDS011;14047;50.936;4.654;2023-07-09T11:39:51;9.50;;;5.05;;
26335;SDS011;14047;50.936;4.654;2023-07-09T11:42:33;10.20;;;5.35;;
26335;SDS011;14047;50.936;4.654;2023-07-09T11:45:12;11.93;;;4.60;;
26335;SDS011;14047;50.936;4.654;2023-07-09T11:47:41;8.10;;;4.45;;
26335;SDS011;14047;50.936;4.654;2023-07-09T11:50:27;10.65;;;4.78;;
26335;SDS011;14047;50.936;4.654;2023-07-09T11:52:58;10.07;;;4.38;;
26335;SDS011;14047;50.936;4.654;2023-07-09T11:55:31;8.48;;;4.55;;
26335;SDS011;14047;50.936;4.654;2023-07-09T11:58:08;10.63;;;4.28;;
26335;SDS011;14047;50.936;4.654;2023-07-09T12:00:46;7.28;;;4.13;;
26335;SDS011;14047;50.936;4.654;2023-07-09T12:03:18;6.80;;;4.13;;
26335;SDS011;14047;50.936;4.654;2023-07-09T12:06:00;9.23;;;3.72;;
26335;SDS011;14047;50.936;4.654;2023-07-09T12:08:38;10.38;;;4.68;;
26335;SDS011;14047;50.936;4.654;2023-07-09T12:11:06;7.47;;;4.38;;
26335;SDS011;14047;50.936;4.654;2023-07-09T12:13:48;6.20;;;4.13;;
26335;SDS011;14047;50.936;4.654;2023-07-09T12:16:24;10.00;;;4.45;;
26335;SDS011;14047;50.936;4.654;2023-07-09T12:18:52;13.10;;;4.75;;
26335;SDS011;14047;50.936;4.654;2023-07-09T12:21:19;10.55;;;5.10;;
26335;SDS011;14047;50.936;4.654;2023-07-09T12:23:45;11.05;;;4.40;;
26335;SDS011;14047;50.936;4.654;2023-07-09T12:26:13;6.43;;;4.20;;
26335;SDS011;14047;50.936;4.654;2023-07-09T12:28:41;11.60;;;5.40;;
26335;SDS011;14047;50.936;4.654;2023-07-09T12:31:14;8.88;;;4.30;;
26335;SDS011;14047;50.936;4.654;2023-07-09T12:33:53;13.13;;;4.78;;
26335;SDS011;14047;50.936;4.654;2023-07-09T12:36:19;9.45;;;4.55;;
26335;SDS011;14047;50.936;4.654;2023-07-09T12:38:48;7.93;;;4.88;;
26335;SDS011;14047;50.936;4.654;2023-07-09T12:44:20;7.72;;;3.92;;
26335;SDS011;14047;50.936;4.654;2023-07-09T12:46:48;8.90;;;4.63;;
26335;SDS011;14047;50.936;4.654;2023-07-09T12:49:23;17.67;;;6.65;;
26335;SDS011;14047;50.936;4.654;2023-07-09T12:51:53;24.58;;;7.43;;
26335;SDS011;14047;50.936;4.654;2023-07-09T12:54:20;18.92;;;7.65;;
26335;SDS011;14047;50.936;4.654;2023-07-09T12:56:49;16.23;;;5.95;;
26335;SDS011;14047;50.936;4.654;2023-07-09T12:59:36;16.52;;;6.25;;
26335;SDS011;14047;50.936;4.654;2023-07-09T13:02:11;13.05;;;7.13;;
26335;SDS011;14047;50.936;4.654;2023-07-09T13:04:45;11.88;;;6.55;;
26335;SDS011;14047;50.936;4.654;2023-07-09T13:09:53;16.58;;;6.90;;
26335;SDS011;14047;50.936;4.654;2023-07-09T13:12:22;16.73;;;7.28;;
26335;SDS011;14047;50.936;4.654;2023-07-09T13:14:55;15.63;;;8.18;;
26335;SDS011;14047;50.936;4.654;2023-07-09T13:17:22;13.32;;;7.93;;
26335;SDS011;14047;50.936;4.654;2023-07-09T13:19:48;13.90;;;7.50;;
26335;SDS011;14047;50.936;4.654;2023-07-09T13:22:16;12.10;;;7.88;;
26335;SDS011;14047;50.936;4.654;2023-07-09T13:24:44;11.88;;;8.32;;
26335;SDS011;14047;50.936;4.654;2023-07-09T13:27:14;12.15;;;7.40;;
26335;SDS011;14047;50.936;4.654;2023-07-09T13:29:41;13.85;;;8.25;;
26335;SDS011;14047;50.936;4.654;2023-07-09T13:32:11;10.00;;;7.28;;
26335;SDS011;14047;50.936;4.654;2023-07-09T13:34:38;15.20;;;8.15;;
26335;SDS011;14047;50.936;4.654;2023-07-09T13:37:05;11.90;;;7.18;;
26335;SDS011;14047;50.936;4.654;2023-07-09T13:39:39;10.73;;;7.35;;
26335;SDS011;14047;50.936;4.654;2023-07-09T13:42:13;11.50;;;6.65;;
26335;SDS011;14047;50.936;4.654;2023-07-09T13:44:42;11.35;;;7.45;;
26335;SDS011;14047;50.936;4.654;2023-07-09T13:47:14;12.43;;;7.20;;
26335;SDS011;14047;50.936;4.654;2023-07-09T13:49:43;11.90;;;7.13;;
26335;SDS011;14047;50.936;4.654;2023-07-09T13:52:16;14.45;;;7.57;;
26335;SDS011;14047;50.936;4.654;2023-07-09T13:54:49;12.55;;;6.65;;
26335;SDS011;14047;50.936;4.654;2023-07-09T13:57:16;15.43;;;6.15;;
26335;SDS011;14047;50.936;4.654;2023-07-09T13:59:45;11.07;;;6.03;;
26335;SDS011;14047;50.936;4.654;2023-07-09T14:02:32;11.73;;;6.43;;
26335;SDS011;14047;50.936;4.654;2023-07-09T14:04:58;10.05;;;5.78;;
26335;SDS011;14047;50.936;4.654;2023-07-09T14:07:29;10.82;;;6.25;;
26335;SDS011;14047;50.936;4.654;2023-07-09T14:10:00;11.10;;;6.03;;
26335;SDS011;14047;50.936;4.654;2023-07-09T14:12:27;11.38;;;5.70;;
26335;SDS011;14047;50.936;4.654;2023-07-09T14:14:53;15.57;;;6.10;;
26335;SDS011;14047;50.936;4.654;2023-07-09T14:17:24;11.48;;;6.47;;
26335;SDS011;14047;50.936;4.654;2023-07-09T14:19:51;22.30;;;14.10;;
26335;SDS011;14047;50.936;4.654;2023-07-09T14:22:20;12.50;;;6.03;;
26335;SDS011;14047;50.936;4.654;2023-07-09T14:24:46;8.90;;;5.72;;
26335;SDS011;14047;50.936;4.654;2023-07-09T14:27:12;12.43;;;5.50;;
26335;SDS011;14047;50.936;4.654;2023-07-09T14:29:38;6.63;;;4.40;;
26335;SDS011;14047;50.936;4.654;2023-07-09T14:32:04;9.68;;;4.72;;
26335;SDS011;14047;50.936;4.654;2023-07-09T14:34:34;9.35;;;4.47;;
26335;SDS011;14047;50.936;4.654;2023-07-09T14:37:00;7.28;;;4.40;;
26335;SDS011;14047;50.936;4.654;2023-07-09T14:39:27;10.27;;;4.30;;
26335;SDS011;14047;50.936;4.654;2023-07-09T14:41:53;7.95;;;4.07;;
26335;SDS011;14047;50.936;4.654;2023-07-09T14:44:29;8.10;;;3.78;;
26335;SDS011;14047;50.936;4.654;2023-07-09T14:46:57;6.28;;;3.63;;
26335;SDS011;14047;50.936;4.654;2023-07-09T14:49:24;10.07;;;3.55;;
26335;SDS011;14047;50.936;4.654;2023-07-09T14:51:52;9.93;;;4.28;;
26335;SDS011;14047;50.936;4.654;2023-07-09T14:54:26;8.95;;;3.55;;
26335;SDS011;14047;50.936;4.654;2023-07-09T14:56:54;10.05;;;4.30;;
26335;SDS011;14047;50.936;4.654;2023-07-09T14:59:22;5.88;;;3.65;;
26335;SDS011;14047;50.936;4.654;2023-07-09T15:01:49;6.50;;;3.28;;
26335;SDS011;14047;50.936;4.654;2023-07-09T15:04:36;6.68;;;3.42;;
26335;SDS011;14047;50.936;4.654;2023-07-09T15:07:08;4.40;;;3.13;;
26335;SDS011;14047;50.936;4.654;2023-07-09T15:09:36;8.65;;;3.15;;
26335;SDS011;14047;50.936;4.654;2023-07-09T15:12:03;5.00;;;3.30;;
26335;SDS011;14047;50.936;4.654;2023-07-09T15:14:29;8.20;;;3.90;;
26335;SDS011;14047;50.936;4.654;2023-07-09T15:16:56;5.68;;;3.63;;
26335;SDS011;14047;50.936;4.654;2023-07-09T15:19:22;8.30;;;3.63;;
26335;SDS011;14047;50.936;4.654;2023-07-09T15:21:48;7.10;;;4.10;;
26335;SDS011;14047;50.936;4.654;2023-07-09T15:24:19;8.40;;;4.05;;
26335;SDS011;14047;50.936;4.654;2023-07-09T15:26:51;8.20;;;4.35;;